Time;durP1;ratioP1;P1;durP2;ratioP2;P2;SDS_P1;SDS_P2;PMS_P1;PMS_P2;Temp;Humidity;BMP_temperature;BMP_pressure;BME280_temperature;BME280_humidity;BME280_pressure;Samples;Min_cycle;Max_cycle;Signal;HPM_P1;HPM_P2
2023/09/10 00:00:43;;;;;;;3.57;1.03;;;20.40;74.30;;;;;;5012937;28;20185;-69
2023/09/10 00:03:10;;;;;;;4.00;0.97;;;20.20;76.70;;;;;;5012499;28;20491;-69
2023/09/10 00:05:38;;;;;;;2.30;1.13;;;20.40;82.60;;;;;;5011103;28;20268;-69
2023/09/10 00:08:06;;;;;;;5.27;1.07;;;20.80;72.70;;;;;;5013262;28;20249;-69
2023/09/10 00:10:34;;;;;;;1.57;0.80;;;21.30;72.20;;;;;;5013585;28;20217;-69
2023/09/10 00:13:03;;;;;;;2.70;0.90;;;21.80;66.10;;;;;;5013601;28;20189;-69
2023/09/10 00:15:30;;;;;;;2.73;1.07;;;22.30;57.20;;;;;;4995496;28;20547;-69
2023/09/10 00:17:58;;;;;;;3.83;1.00;;;21.50;59.30;;;;;;5013339;28;20206;-71
2023/09/10 00:20:27;;;;;;;5.37;1.20;;;21.30;56.40;;;;;;5013748;28;20167;-69
2023/09/10 00:22:56;;;;;;;1.43;0.73;;;20.70;56.40;;;;;;5013612;28;20530;-70
2023/09/10 00:25:24;;;;;;;4.03;1.13;;;21.50;57.10;;;;;;4993800;28;20229;-68
2023/09/10 00:27:51;;;;;;;4.37;1.37;;;21.50;56.00;;;;;;4979191;28;20185;-68
2023/09/10 00:30:20;;;;;;;2.27;1.10;;;21.90;55.80;;;;;;5011923;28;20561;-69
2023/09/10 00:32:47;;;;;;;3.67;1.13;;;22.00;52.90;;;;;;5011778;28;20178;-69
2023/09/10 00:35:16;;;;;;;5.03;1.27;;;21.50;48.50;;;;;;5011353;28;20196;-69
2023/09/10 00:37:44;;;;;;;2.73;1.17;;;21.10;50.60;;;;;;5012063;28;20188;-70
2023/09/10 00:40:12;;;;;;;4.90;1.10;;;21.60;53.50;;;;;;5012079;28;20181;-70
2023/09/10 00:42:40;;;;;;;2.67;1.00;;;22.10;50.00;;;;;;5011872;28;20177;-69
2023/09/10 00:45:10;;;;;;;4.57;1.13;;;22.40;49.30;;;;;;4998885;28;20214;-68
2023/09/10 00:47:44;;;;;;;4.23;1.10;;;22.00;47.40;;;;;;5012095;28;20174;-69
2023/09/10 00:50:15;;;;;;;4.77;1.10;;;22.60;46.20;;;;;;5011452;28;20209;-69
2023/09/10 00:52:46;;;;;;;3.07;1.00;;;23.10;46.20;;;;;;5012270;28;20226;-69
2023/09/10 00:55:15;;;;;;;2.57;1.00;;;22.80;39.40;;;;;;5011890;28;20190;-69
2023/09/10 00:57:44;;;;;;;4.17;0.93;;;22.60;42.40;;;;;;5010683;28;20725;-69
2023/09/10 01:00:13;;;;;;;2.60;0.87;;;23.40;39.30;;;;;;5010166;28;20194;-70
2023/09/10 01:02:44;;;;;;;2.50;0.90;;;23.40;38.90;;;;;;5011326;28;20185;-69
2023/09/10 01:05:12;;;;;;;2.87;0.80;;;23.20;41.50;;;;;;5011151;28;20266;-68
2023/09/10 01:07:40;;;;;;;3.67;1.00;;;23.20;35.20;;;;;;5012090;28;20636;-68
2023/09/10 01:10:09;;;;;;;4.90;1.20;;;23.40;33.50;;;;;;5011863;28;20685;-68
2023/09/10 01:13:09;;;;;;;3.93;1.30;;;23.30;35.00;;;;;;5011370;28;20194;-69
2023/09/10 01:15:46;;;;;;;3.77;1.10;;;23.30;28.40;;;;;;5005185;28;20186;-68
2023/09/10 01:18:40;;;;;;;5.60;1.40;;;23.40;33.90;;;;;;5011862;28;20196;-68
2023/09/10 01:21:23;;;;;;;4.43;1.40;;;23.70;29.50;;;;;;4986076;28;20706;-69
2023/09/10 01:24:14;;;;;;;2.27;0.80;;;23.70;33.00;;;;;;5011571;28;20197;-68
2023/09/10 01:26:42;;;;;;;2.57;0.80;;;24.30;27.90;;;;;;4994314;28;20612;-68
2023/09/10 01:29:13;;;;;;;2.63;1.00;;;24.30;30.90;;;;;;5011181;28;20219;-70
2023/09/10 01:31:45;;;;;;;3.53;1.00;;;24.20;30.10;;;;;;5011693;28;20205;-68
2023/09/10 01:34:15;;;;;;;5.50;0.97;;;23.90;30.90;;;;;;5011634;28;20174;-69
2023/09/10 01:36:49;;;;;;;4.67;1.23;;;23.60;25.30;;;;;;5011287;28;20639;-70
2023/09/10 01:39:38;;;;;;;2.90;0.90;;;23.10;22.80;;;;;;5011839;28;20173;-69
2023/09/10 01:42:08;;;;;;;2.87;0.80;;;23.30;27.00;;;;;;5011254;28;20243;-68
2023/09/10 01:44:36;;;;;;;2.07;0.90;;;23.90;25.90;;;;;;4993520;28;20583;-69
2023/09/10 01:47:04;;;;;;;5.07;1.00;;;23.90;23.60;;;;;;5014717;28;20190;-69
2023/09/10 01:49:32;;;;;;;3.43;0.73;;;23.90;24.40;;;;;;5014773;28;20193;-70
2023/09/10 01:52:00;;;;;;;6.47;0.90;;;24.10;27.50;;;;;;5015234;28;20545;-69
2023/09/10 01:54:28;;;;;;;2.93;0.83;;;24.20;26.30;;;;;;5015173;28;20212;-69
2023/09/10 01:56:56;;;;;;;3.67;1.00;;;24.10;20.50;;;;;;5014777;28;20178;-69
2023/09/10 01:59:24;;;;;;;3.03;0.93;;;24.50;23.90;;;;;;5015248;28;20241;-68
2023/09/10 02:01:51;;;;;;;1.60;0.73;;;24.80;24.50;;;;;;5015104;28;20203;-69
2023/09/10 02:04:19;;;;;;;2.53;1.00;;;24.80;20.50;;;;;;5014177;28;20279;-69
2023/09/10 02:06:48;;;;;;;3.63;1.03;;;24.10;18.60;;;;;;4997403;28;20264;-71
2023/09/10 02:09:16;;;;;;;4.00;1.07;;;23.70;20.80;;;;;;5015047;28;20228;-68
2023/09/10 02:11:43;;;;;;;2.50;0.73;;;23.60;17.90;;;;;;5014750;28;20178;-69
2023/09/10 02:14:11;;;;;;;2.67;0.97;;;24.20;17.60;;;;;;5014712;28;20185;-69
2023/09/10 02:16:39;;;;;;;3.87;1.00;;;24.80;17.80;;;;;;5015102;28;20209;-68
2023/09/10 02:19:07;;;;;;;2.23;0.80;;;25.20;18.20;;;;;;5014158;28;20201;-68
2023/09/10 02:21:35;;;;;;;2.23;0.80;;;24.80;14.90;;;;;;5015045;28;20174;-69
2023/09/10 02:24:03;;;;;;;2.57;0.90;;;23.80;16.90;;;;;;5014401;28;20208;-69
2023/09/10 02:26:30;;;;;;;2.33;0.83;;;24.10;17.00;;;;;;5014439;28;20595;-70
2023/09/10 02:28:59;;;;;;;1.60;0.63;;;24.10;15.20;;;;;;4997124;28;20178;-69
2023/09/10 02:31:26;;;;;;;1.93;0.80;;;24.20;16.00;;;;;;5014659;28;20186;-69
2023/09/10 02:34:00;;;;;;;1.63;0.70;;;24.60;17.40;;;;;;5013809;28;20718;-70
2023/09/10 02:36:29;;;;;;;3.80;0.93;;;24.20;15.70;;;;;;5014698;28;20205;-70
2023/09/10 02:38:56;;;;;;;3.17;0.77;;;22.90;15.40;;;;;;5014622;28;20174;-68
2023/09/10 02:41:24;;;;;;;2.07;0.70;;;22.10;14.40;;;;;;4996451;28;20181;-68
2023/09/10 02:43:52;;;;;;;2.07;0.90;;;22.50;13.30;;;;;;5013661;28;20289;-68
2023/09/10 02:46:20;;;;;;;2.70;0.80;;;22.70;14.50;;;;;;5014402;28;20185;-68
2023/09/10 02:48:47;;;;;;;2.03;0.60;;;23.20;16.70;;;;;;5014013;28;20231;-68
2023/09/10 02:51:15;;;;;;;2.30;0.90;;;23.90;13.40;;;;;;5016373;28;20269;-67
2023/09/10 02:53:43;;;;;;;4.13;0.90;;;23.80;14.20;;;;;;5014028;28;20185;-70
2023/09/10 02:56:11;;;;;;;2.07;0.77;;;23.50;14.00;;;;;;4976631;28;20290;-68
2023/09/10 02:58:39;;;;;;;2.87;0.80;;;23.70;12.70;;;;;;4994386;28;20313;-68
2023/09/10 03:01:07;;;;;;;1.30;0.80;;;23.80;16.20;;;;;;5007268;28;20182;-68
2023/09/10 03:03:34;;;;;;;2.77;0.90;;;23.70;11.40;;;;;;4994929;28;20193;-68
2023/09/10 03:06:02;;;;;;;1.17;0.60;;;22.40;11.60;;;;;;5013397;28;20280;-68
2023/09/10 03:08:35;;;;;;;2.53;1.00;;;21.90;12.00;;;;;;5013343;28;20190;-69
2023/09/10 03:11:06;;;;;;;2.70;1.33;;;22.40;13.70;;;;;;5010531;28;20217;-69
2023/09/10 03:13:33;;;;;;;3.67;0.90;;;22.30;13.30;;;;;;5013538;28;20344;-69
2023/09/10 03:16:01;;;;;;;1.40;0.73;;;22.50;15.60;;;;;;5013523;28;20178;-68
2023/09/10 03:18:29;;;;;;;2.03;0.83;;;23.10;13.80;;;;;;5013452;28;20679;-68
2023/09/10 03:20:57;;;;;;;1.80;1.10;;;23.80;15.40;;;;;;5013695;28;20186;-68
2023/09/10 03:23:24;;;;;;;2.00;1.03;;;23.40;12.60;;;;;;5013349;28;20220;-69
2023/09/10 03:25:52;;;;;;;3.00;1.33;;;23.60;12.10;;;;;;5012315;28;20213;-69
2023/09/10 03:28:20;;;;;;;1.97;0.70;;;23.20;10.90;;;;;;5016049;28;20182;-68
2023/09/10 03:30:47;;;;;;;2.43;1.03;;;22.40;9.20;;;;;;5021303;28;20200;-67
2023/09/10 03:33:19;;;;;;;4.57;1.10;;;21.50;11.40;;;;;;5016236;28;20174;-69
2023/09/10 03:35:47;;;;;;;1.70;0.60;;;21.20;11.20;;;;;;4996653;28;20236;-68
2023/09/10 03:38:15;;;;;;;0.97;0.50;;;21.50;11.70;;;;;;5013448;28;20190;-69
2023/09/10 03:40:42;;;;;;;2.33;0.73;;;22.10;13.80;;;;;;5012271;28;20590;-68
2023/09/10 03:43:10;;;;;;;2.23;0.70;;;22.50;11.50;;;;;;5014005;28;20177;-68
2023/09/10 03:45:38;;;;;;;1.50;0.63;;;22.50;12.80;;;;;;5013703;28;20217;-70
2023/09/10 03:48:06;;;;;;;1.47;0.80;;;22.90;13.00;;;;;;5012520;28;20210;-68
2023/09/10 03:50:34;;;;;;;2.67;1.10;;;22.20;11.40;;;;;;5012659;28;20265;-69
2023/09/10 03:53:02;;;;;;;1.10;0.80;;;22.70;13.80;;;;;;5012941;28;20170;-68
2023/09/10 03:55:30;;;;;;;1.70;0.97;;;23.20;11.50;;;;;;5012509;28;20188;-70
2023/09/10 03:57:59;;;;;;;1.33;0.73;;;23.30;12.40;;;;;;5012521;28;20245;-68
2023/09/10 04:00:28;;;;;;;2.27;0.77;;;23.10;9.00;;;;;;4995375;28;20182;-69
2023/09/10 04:02:56;;;;;;;2.37;1.00;;;23.10;10.30;;;;;;5012565;28;20193;-70
2023/09/10 04:05:23;;;;;;;3.30;1.00;;;23.30;11.40;;;;;;5012748;28;20209;-69
2023/09/10 04:07:51;;;;;;;1.67;0.80;;;23.30;13.40;;;;;;5012439;28;20182;-69
2023/09/10 04:10:20;;;;;;;6.00;0.90;;;23.40;13.90;;;;;;5013187;28;20181;-69
2023/09/10 04:12:50;;;;;;;3.93;0.77;;;23.60;11.40;;;;;;5013874;28;20229;-69
2023/09/10 04:15:18;;;;;;;2.53;0.80;;;23.70;11.30;;;;;;5013667;28;20189;-69
2023/09/10 04:17:46;;;;;;;1.43;0.60;;;23.70;11.70;;;;;;5013988;28;20186;-69
2023/09/10 04:20:14;;;;;;;1.57;0.73;;;23.50;11.30;;;;;;5013599;28;20178;-69
2023/09/10 04:22:41;;;;;;;2.37;0.70;;;23.50;8.70;;;;;;4995831;28;20177;-69
2023/09/10 04:25:09;;;;;;;1.30;0.70;;;23.20;9.70;;;;;;5013442;28;20267;-69
2023/09/10 04:27:38;;;;;;;3.37;0.70;;;23.00;8.10;;;;;;5013709;28;20264;-69
2023/09/10 04:30:07;;;;;;;2.37;0.73;;;22.90;8.40;;;;;;5012973;28;20184;-69
2023/09/10 04:32:35;;;;;;;1.30;0.60;;;23.10;9.40;;;;;;4993621;28;20194;-69
2023/09/10 04:35:07;;;;;;;1.23;0.70;;;23.00;9.00;;;;;;4993897;28;20696;-69
2023/09/10 04:37:35;;;;;;;3.00;1.00;;;23.10;7.60;;;;;;4980013;28;20189;-69
2023/09/10 04:43:25;;;;;;;3.20;0.80;;;22.70;7.90;;;;;;5013103;28;20189;-70
2023/09/10 04:45:53;;;;;;;2.07;1.00;;;22.50;6.80;;;;;;5013364;28;20679;-70
2023/09/10 04:48:20;;;;;;;2.80;0.67;;;22.50;7.80;;;;;;5012936;28;20193;-69
2023/09/10 04:50:48;;;;;;;2.97;0.80;;;22.40;6.70;;;;;;5013555;28;20328;-69
2023/09/10 04:53:16;;;;;;;4.50;0.60;;;22.10;6.30;;;;;;5012731;28;20711;-69
2023/09/10 04:55:44;;;;;;;1.73;0.60;;;21.80;7.20;;;;;;5012606;28;20186;-69
2023/09/10 04:58:13;;;;;;;3.47;0.70;;;21.80;7.50;;;;;;5012541;28;20576;-69
2023/09/10 05:00:41;;;;;;;1.90;0.70;;;21.90;9.10;;;;;;5010149;28;20276;-69
2023/09/10 05:03:09;;;;;;;1.30;0.63;;;22.00;9.00;;;;;;5012217;28;20249;-70
2023/09/10 05:05:37;;;;;;;1.13;0.70;;;21.90;4.80;;;;;;4994814;28;20217;-69
2023/09/10 05:08:05;;;;;;;0.77;0.70;;;21.80;6.40;;;;;;5012824;28;20562;-69
2023/09/10 05:10:33;;;;;;;1.37;0.60;;;21.40;3.60;;;;;;5013157;28;20182;-71
2023/09/10 05:13:00;;;;;;;1.57;0.70;;;21.30;5.30;;;;;;5013025;28;20189;-69
2023/09/10 05:15:38;;;;;;;2.87;1.07;;;21.10;4.20;;;;;;5013159;28;20236;-70
2023/09/10 05:18:06;;;;;;;0.97;0.57;;;21.20;4.60;;;;;;5012987;28;20627;-70
2023/09/10 05:20:33;;;;;;;0.90;0.60;;;21.10;5.60;;;;;;5014245;28;20170;-71
2023/09/10 05:23:01;;;;;;;0.50;0.50;;;21.20;7.00;;;;;;4999075;28;20182;-70
2023/09/10 05:25:29;;;;;;;3.70;1.70;;;21.30;8.20;;;;;;5017006;28;20220;-71
2023/09/10 05:28:00;;;;;;;6.40;2.67;;;21.40;11.40;;;;;;4999063;28;20261;-68
2023/09/10 05:30:31;;;;;;;4.60;2.27;;;21.30;15.90;;;;;;5016906;28;20222;-68
2023/09/10 05:33:02;;;;;;;4.83;2.00;;;21.00;17.40;;;;;;5016724;28;20170;-69
2023/09/10 05:35:33;;;;;;;4.40;2.30;;;20.90;16.30;;;;;;5016693;28;20682;-69
2023/09/10 05:38:04;;;;;;;5.00;2.47;;;20.90;19.40;;;;;;5016725;28;20180;-70
2023/09/10 05:40:37;;;;;;;5.53;2.60;;;20.80;25.90;;;;;;5014778;28;20257;-69
2023/09/10 05:43:11;;;;;;;7.47;2.30;;;20.80;29.70;;;;;;5016158;28;20188;-70
2023/09/10 05:45:39;;;;;;;4.63;2.23;;;20.70;28.10;;;;;;5016369;28;20627;-69
2023/09/10 05:48:07;;;;;;;3.67;2.23;;;20.50;30.60;;;;;;5016332;28;20601;-69
2023/09/10 05:50:35;;;;;;;5.73;2.13;;;20.40;32.50;;;;;;5015371;28;20519;-70
2023/09/10 05:53:06;;;;;;;5.13;2.17;;;20.20;34.30;;;;;;5016031;28;20191;-69
2023/09/10 05:55:38;;;;;;;4.33;1.90;;;20.00;35.00;;;;;;5015904;28;20182;-69
2023/09/10 05:58:06;;;;;;;5.50;1.97;;;20.20;42.10;;;;;;5015640;28;20264;-69
2023/09/10 06:00:35;;;;;;;5.50;1.73;;;19.90;43.40;;;;;;5015981;28;20182;-69
2023/09/10 06:03:04;;;;;;;5.07;1.90;;;19.90;46.40;;;;;;5015724;28;20178;-69
2023/09/10 06:05:34;;;;;;;4.97;1.50;;;19.80;50.90;;;;;;5015801;28;20215;-69
2023/09/10 06:08:02;;;;;;;4.50;1.63;;;19.60;54.10;;;;;;5016025;28;20189;-69
2023/09/10 06:10:30;;;;;;;4.70;1.50;;;19.60;59.30;;;;;;5015707;28;20265;-69
2023/09/10 06:12:58;;;;;;;3.67;1.50;;;19.50;61.90;;;;;;5015587;28;20176;-69
2023/09/10 06:15:27;;;;;;;5.50;1.87;;;19.60;70.30;;;;;;4973470;28;20681;-69
2023/09/10 06:17:55;;;;;;;2.77;1.30;;;19.70;71.00;;;;;;4995437;28;20207;-69
2023/09/10 06:20:23;;;;;;;5.00;1.33;;;19.60;64.00;;;;;;5013557;28;20715;-70
2023/09/10 06:22:52;;;;;;;7.00;1.63;;;19.40;62.40;;;;;;4995909;28;20184;-69
2023/09/10 06:25:24;;;;;;;3.30;1.30;;;19.40;65.60;;;;;;5014425;28;20217;-70
2023/09/10 06:27:51;;;;;;;7.53;1.20;;;19.40;65.30;;;;;;4996665;28;20224;-70
2023/09/10 06:30:19;;;;;;;3.67;1.43;;;19.30;60.20;;;;;;5013383;28;20170;-69
2023/09/10 06:32:50;;;;;;;3.10;1.40;;;19.20;64.30;;;;;;5013119;28;20178;-69
2023/09/10 06:35:17;;;;;;;3.43;1.33;;;19.10;65.10;;;;;;5013568;28;20185;-69
2023/09/10 06:37:49;;;;;;;4.83;1.57;;;19.10;66.90;;;;;;5013537;28;20182;-71
2023/09/10 06:40:17;;;;;;;3.57;1.47;;;18.80;63.70;;;;;;5013962;28;20170;-70
2023/09/10 06:42:45;;;;;;;4.03;1.43;;;18.80;67.70;;;;;;5014089;28;20178;-70
2023/09/10 06:45:13;;;;;;;3.80;1.20;;;18.70;66.50;;;;;;5013387;28;20244;-70
2023/09/10 06:47:40;;;;;;;3.00;1.17;;;18.70;70.70;;;;;;5015290;28;20597;-67
2023/09/10 06:50:08;;;;;;;5.40;1.30;;;18.60;68.60;;;;;;5014128;28;20215;-71
2023/09/10 06:52:36;;;;;;;2.10;1.20;;;18.40;70.60;;;;;;5013434;28;20898;-70
2023/09/10 06:55:05;;;;;;;5.33;1.57;;;18.20;71.20;;;;;;5013371;28;20191;-69
2023/09/10 06:57:33;;;;;;;5.40;1.10;;;18.20;73.70;;;;;;5013698;28;20181;-70
2023/09/10 07:00:02;;;;;;;5.97;1.50;;;18.30;79.30;;;;;;5013616;28;20182;-70
2023/09/10 07:02:29;;;;;;;4.03;1.30;;;18.20;81.60;;;;;;5014572;28;20185;-70
2023/09/10 07:04:57;;;;;;;2.87;1.10;;;18.20;80.10;;;;;;5014373;28;20209;-70
2023/09/10 07:07:26;;;;;;;3.73;1.13;;;18.00;81.90;;;;;;5014732;28;20180;-69
2023/09/10 07:09:54;;;;;;;3.77;1.40;;;17.80;83.50;;;;;;5014363;28;20186;-70
2023/09/10 07:12:22;;;;;;;2.57;1.27;;;17.40;90.80;;;;;;5014665;28;20174;-70
2023/09/10 07:14:49;;;;;;;2.73;1.30;;;17.30;94.40;;;;;;5014578;28;20659;-70
2023/09/10 07:17:18;;;;;;;3.33;1.20;;;17.20;97.70;;;;;;4996402;28;20192;-70
2023/09/10 07:19:46;;;;;;;3.00;1.40;;;17.10;99.90;;;;;;5013600;28;20602;-69
2023/09/10 07:22:13;;;;;;;6.10;1.30;;;17.00;99.90;;;;;;5014405;28;20174;-69
2023/09/10 07:24:41;;;;;;;6.10;1.30;;;16.70;99.90;;;;;;5014150;28;20556;-70
2023/09/10 07:27:10;;;;;;;3.13;1.20;;;16.60;99.90;;;;;;5014549;28;20178;-70
2023/09/10 07:29:38;;;;;;;6.80;1.33;;;16.50;99.90;;;;;;5014445;28;20178;-69
2023/09/10 07:32:06;;;;;;;3.40;1.43;;;16.50;99.90;;;;;;5014418;28;20539;-70
2023/09/10 07:34:37;;;;;;;3.43;1.37;;;16.30;99.90;;;;;;5014041;28;20603;-69
2023/09/10 07:37:05;;;;;;;4.93;1.53;;;16.30;99.90;;;;;;5014172;28;20189;-71
2023/09/10 07:39:32;;;;;;;7.80;1.63;;;16.20;99.90;;;;;;5014352;28;20186;-69
2023/09/10 07:42:01;;;;;;;3.13;1.40;;;16.20;99.90;;;;;;5013724;28;20178;-70
2023/09/10 07:44:29;;;;;;;8.83;1.90;;;16.10;99.90;;;;;;5013187;28;20218;-69
2023/09/10 07:46:57;;;;;;;2.47;1.60;;;15.90;99.90;;;;;;5013775;28;20200;-69
2023/09/10 07:49:25;;;;;;;4.00;1.90;;;15.80;99.90;;;;;;4992638;28;20589;-69
2023/09/10 07:51:54;;;;;;;5.23;1.70;;;15.80;99.90;;;;;;5012339;28;20167;-69
2023/09/10 07:54:23;;;;;;;2.17;1.23;;;15.70;99.90;;;;;;5011581;28;20204;-70
2023/09/10 07:56:50;;;;;;;7.47;1.43;;;15.60;99.90;;;;;;5011544;28;20269;-69
2023/09/10 07:59:18;;;;;;;4.33;1.50;;;15.50;99.90;;;;;;5011475;28;20221;-69
2023/09/10 08:01:46;;;;;;;4.33;1.70;;;15.50;99.90;;;;;;5012298;28;20247;-70
2023/09/10 08:04:15;;;;;;;4.00;1.73;;;15.40;99.90;;;;;;5011509;28;20201;-70
2023/09/10 08:06:46;;;;;;;6.40;1.77;;;15.30;99.90;;;;;;5005106;28;20190;-70
2023/09/10 08:09:14;;;;;;;5.23;1.30;;;15.20;99.90;;;;;;5010417;28;20186;-70
2023/09/10 08:11:42;;;;;;;3.30;1.33;;;15.20;99.90;;;;;;5011679;28;20190;-69
2023/09/10 08:14:10;;;;;;;6.30;1.67;;;15.20;99.90;;;;;;5010283;28;20213;-69
2023/09/10 08:16:37;;;;;;;4.53;1.53;;;15.10;99.90;;;;;;5011512;28;20190;-70
2023/09/10 08:19:05;;;;;;;5.07;1.73;;;14.90;99.90;;;;;;5011330;28;20639;-69
2023/09/10 08:21:33;;;;;;;2.20;1.47;;;14.90;99.90;;;;;;5011561;28;20245;-70
2023/09/10 08:24:02;;;;;;;6.23;2.13;;;14.90;99.90;;;;;;5011526;28;20310;-70
2023/09/10 08:26:30;;;;;;;4.60;1.70;;;14.80;99.90;;;;;;4993333;28;20274;-69
2023/09/10 08:28:59;;;;;;;3.27;1.37;;;14.70;99.90;;;;;;5011394;28;20309;-70
2023/09/10 08:31:27;;;;;;;4.20;1.60;;;14.60;99.90;;;;;;4993507;28;20193;-70
2023/09/10 08:33:55;;;;;;;5.13;1.83;;;14.70;99.90;;;;;;5009550;28;20667;-69
2023/09/10 08:36:24;;;;;;;4.93;1.90;;;14.70;99.90;;;;;;4993823;28;20247;-70
2023/09/10 08:38:53;;;;;;;3.63;1.47;;;14.60;99.90;;;;;;5011719;28;20178;-70
2023/09/10 08:41:35;;;;;;;6.00;1.83;;;14.60;99.90;;;;;;5010816;28;20604;-70
2023/09/10 08:44:04;;;;;;;2.33;1.50;;;14.50;99.90;;;;;;5011599;28;20665;-70
2023/09/10 08:46:34;;;;;;;5.13;1.53;;;14.40;99.90;;;;;;5011257;28;20228;-70
2023/09/10 08:49:03;;;;;;;5.23;1.67;;;14.20;99.90;;;;;;4994947;28;20232;-70
2023/09/10 08:51:33;;;;;;;7.70;1.80;;;14.10;99.90;;;;;;5012598;28;20193;-70
2023/09/10 08:54:02;;;;;;;6.43;2.03;;;14.00;99.90;;;;;;5012566;28;20181;-69
2023/09/10 08:56:31;;;;;;;5.27;1.50;;;13.90;99.90;;;;;;4995001;28;20179;-69
2023/09/10 08:59:03;;;;;;;3.47;1.53;;;13.80;99.90;;;;;;5012472;28;20336;-69
2023/09/10 09:01:32;;;;;;;3.77;1.53;;;13.60;99.90;;;;;;5012354;28;20610;-70
2023/09/10 09:04:04;;;;;;;3.27;1.90;;;13.50;99.90;;;;;;5012557;28;20307;-70
2023/09/10 09:06:37;;;;;;;5.17;1.97;;;13.50;99.90;;;;;;4995703;28;20244;-69
2023/09/10 09:09:06;;;;;;;5.33;2.10;;;13.40;99.90;;;;;;5013035;28;20252;-69
2023/09/10 09:11:37;;;;;;;3.07;1.80;;;13.30;99.90;;;;;;5011956;28;20568;-69
2023/09/10 09:14:08;;;;;;;2.63;1.47;;;13.20;99.90;;;;;;5009778;28;20720;-68
2023/09/10 09:16:40;;;;;;;4.37;1.90;;;13.10;99.90;;;;;;5012727;28;20708;-69
2023/09/10 09:19:14;;;;;;;5.87;2.13;;;13.10;99.90;;;;;;4979189;28;20598;-71
2023/09/10 09:21:43;;;;;;;4.50;2.17;;;13.00;99.90;;;;;;5012969;28;20257;-68
2023/09/10 09:24:15;;;;;;;3.90;2.30;;;13.00;99.90;;;;;;5012248;28;20690;-70
2023/09/10 09:26:43;;;;;;;7.90;2.37;;;13.00;99.90;;;;;;5012493;28;20541;-69
2023/09/10 09:29:12;;;;;;;5.83;2.27;;;13.00;99.90;;;;;;5012827;28;20192;-70
2023/09/10 09:31:39;;;;;;;4.30;2.17;;;12.90;99.90;;;;;;5012561;28;20204;-70
2023/09/10 09:34:08;;;;;;;3.77;1.70;;;12.90;99.90;;;;;;5012793;28;20652;-71
2023/09/10 09:36:45;;;;;;;4.53;2.10;;;12.80;99.90;;;;;;4978726;28;20185;-71
2023/09/10 09:39:17;;;;;;;9.00;2.63;;;12.70;99.90;;;;;;5013021;28;20180;-70
2023/09/10 09:41:51;;;;;;;5.87;2.40;;;12.70;99.90;;;;;;5012807;28;20170;-70
2023/09/10 09:44:23;;;;;;;6.33;2.27;;;12.60;99.90;;;;;;5012584;28;20209;-69
2023/09/10 09:46:56;;;;;;;3.30;1.90;;;12.60;99.90;;;;;;4995114;28;20551;-69
2023/09/10 09:49:25;;;;;;;4.80;2.40;;;12.50;99.90;;;;;;5012346;28;20177;-71
2023/09/10 09:51:53;;;;;;;6.67;2.50;;;12.50;99.90;;;;;;4995721;28;20177;-70
2023/09/10 09:54:21;;;;;;;7.20;2.70;;;12.40;99.90;;;;;;5012203;28;20548;-69
2023/09/10 09:56:49;;;;;;;11.27;2.93;;;12.30;99.90;;;;;;4994934;28;20280;-70
2023/09/10 09:59:17;;;;;;;9.27;3.00;;;12.30;99.90;;;;;;5012483;28;20233;-69
2023/09/10 10:01:46;;;;;;;5.97;3.00;;;12.20;99.90;;;;;;5012199;28;20240;-69
2023/09/10 10:04:15;;;;;;;8.07;2.60;;;12.20;99.90;;;;;;4994443;28;20583;-69
2023/09/10 10:06:43;;;;;;;7.47;2.87;;;12.10;99.90;;;;;;4995595;28;20654;-69
2023/09/10 10:09:11;;;;;;;7.47;3.10;;;12.00;99.90;;;;;;5015986;28;20686;-70
2023/09/10 10:11:40;;;;;;;9.30;3.17;;;12.00;99.90;;;;;;5015854;28;20588;-70
2023/09/10 10:14:09;;;;;;;5.33;3.07;;;11.90;99.90;;;;;;5015726;28;20181;-70
2023/09/10 10:16:38;;;;;;;7.90;3.07;;;11.90;99.90;;;;;;5015554;28;20270;-69
2023/09/10 10:19:07;;;;;;;4.37;2.63;;;11.90;99.90;;;;;;5015512;28;20173;-69
2023/09/10 10:21:36;;;;;;;8.70;3.03;;;11.90;99.90;;;;;;5015741;28;20182;-69
2023/09/10 10:24:04;;;;;;;8.73;3.50;;;12.00;99.90;;;;;;4997641;28;20196;-71
2023/09/10 10:26:34;;;;;;;7.80;3.40;;;12.00;99.90;;;;;;5015655;28;20188;-69
2023/09/10 10:29:04;;;;;;;8.00;3.40;;;12.00;99.90;;;;;;4997772;28;20551;-69
2023/09/10 10:31:35;;;;;;;9.87;4.00;;;12.00;99.90;;;;;;5015920;28;20218;-69
2023/09/10 10:34:22;;;;;;;6.83;3.10;;;12.00;99.90;;;;;;4998108;28;20239;-69
2023/09/10 10:37:10;;;;;;;8.53;3.57;;;11.90;99.90;;;;;;5015384;28;20182;-69
2023/09/10 10:39:53;;;;;;;9.67;3.97;;;11.80;99.90;;;;;;5015761;28;20236;-69
2023/09/10 10:42:33;;;;;;;11.53;3.43;;;11.80;99.90;;;;;;5015171;28;20181;-69
2023/09/10 10:45:06;;;;;;;7.93;3.97;;;11.90;99.90;;;;;;5015463;28;20350;-69
2023/09/10 10:47:38;;;;;;;7.27;3.67;;;11.90;99.90;;;;;;4997361;28;20245;-71
2023/09/10 10:50:13;;;;;;;7.20;3.73;;;11.90;99.90;;;;;;5015332;28;20188;-69
2023/09/10 10:53:04;;;;;;;8.23;3.60;;;11.90;99.90;;;;;;5015401;28;20182;-69
2023/09/10 10:55:33;;;;;;;10.00;5.70;;;11.80;99.90;;;;;;5001924;28;20198;-69
2023/09/10 10:58:03;;;;;;;8.63;5.10;;;11.80;99.90;;;;;;4997934;28;20666;-71
2023/09/10 11:00:32;;;;;;;10.90;4.90;;;11.80;99.90;;;;;;4997621;28;20192;-70
2023/09/10 11:03:19;;;;;;;12.90;6.20;;;11.80;99.90;;;;;;5015070;28;20271;-70
2023/09/10 11:06:05;;;;;;;19.57;10.50;;;11.70;99.90;;;;;;5014870;28;20270;-70
2023/09/10 11:08:40;;;;;;;20.20;12.87;;;11.70;99.90;;;;;;4997460;28;20275;-70
2023/09/10 11:11:41;;;;;;;29.63;20.10;;;11.70;99.90;;;;;;5014593;28;20196;-70
2023/09/10 11:14:10;;;;;;;39.80;23.37;;;11.70;99.90;;;;;;5014765;28;20183;-69
2023/09/10 11:16:42;;;;;;;40.00;26.07;;;11.70;99.90;;;;;;5014595;28;20181;-69
2023/09/10 11:19:50;;;;;;;39.80;27.87;;;11.70;99.90;;;;;;5012578;28;20185;-69
2023/09/10 11:22:18;;;;;;;41.93;27.43;;;11.60;99.90;;;;;;4996734;28;20653;-69
2023/09/10 11:25:01;;;;;;;45.10;29.63;;;11.50;99.90;;;;;;4980470;28;20235;-70
2023/09/10 11:27:30;;;;;;;56.37;40.03;;;11.40;99.90;;;;;;5014991;28;20176;-70
2023/09/10 11:30:22;;;;;;;59.10;42.50;;;11.40;99.90;;;;;;5014031;28;20269;-70
2023/09/10 11:33:12;;;;;;;67.27;43.83;;;11.40;99.90;;;;;;4997359;28;20233;-70
2023/09/10 11:35:50;;;;;;;64.40;42.43;;;11.50;99.90;;;;;;5014330;28;20212;-70
2023/09/10 11:38:21;;;;;;;57.60;40.67;;;11.50;99.90;;;;;;5014526;28;20168;-69
2023/09/10 11:41:08;;;;;;;61.73;39.70;;;11.40;99.90;;;;;;5014253;28;20185;-70
2023/09/10 11:43:39;;;;;;;56.80;39.27;;;11.40;99.90;;;;;;4995612;28;20192;-69
2023/09/10 11:46:10;;;;;;;59.10;38.27;;;11.40;99.90;;;;;;5012877;28;20682;-70
2023/09/10 11:48:37;;;;;;;56.37;35.43;;;11.30;99.90;;;;;;5012896;28;20187;-70
2023/09/10 11:51:10;;;;;;;57.27;33.20;;;11.20;99.90;;;;;;5012377;28;20187;-70
2023/09/10 11:53:40;;;;;;;47.80;33.20;;;11.30;99.90;;;;;;4995826;28;20597;-69
2023/09/10 11:56:13;;;;;;;57.50;33.83;;;11.20;99.90;;;;;;4993860;28;20181;-68
2023/09/10 11:58:41;;;;;;;44.50;30.27;;;11.20;99.90;;;;;;4994220;28;20244;-69
2023/09/10 12:01:10;;;;;;;52.60;33.87;;;11.10;99.90;;;;;;5003739;28;20541;-69
2023/09/10 12:03:41;;;;;;;43.17;29.80;;;11.00;99.90;;;;;;5013199;28;20274;-70
2023/09/10 12:06:13;;;;;;;49.50;32.17;;;10.90;99.90;;;;;;5013119;28;20757;-70
2023/09/10 12:08:41;;;;;;;46.70;31.17;;;10.80;99.90;;;;;;4996061;28;20234;-69
2023/09/10 12:11:12;;;;;;;50.33;31.60;;;10.70;99.90;;;;;;5013193;28;20184;-71
2023/09/10 12:13:45;;;;;;;44.10;32.03;;;10.60;99.90;;;;;;5013169;28;20185;-70
2023/09/10 12:16:17;;;;;;;43.63;30.70;;;10.60;99.90;;;;;;5013319;28;20517;-70
2023/09/10 12:18:50;;;;;;;50.30;32.10;;;10.50;99.90;;;;;;5013158;28;20177;-70
2023/09/10 12:21:19;;;;;;;46.37;31.10;;;10.50;99.90;;;;;;5013195;28;20185;-70
2023/09/10 12:23:51;;;;;;;46.37;29.50;;;10.40;99.90;;;;;;5012321;28;20727;-70
2023/09/10 12:26:22;;;;;;;44.50;30.27;;;10.30;99.90;;;;;;4996041;28;20236;-70
2023/09/10 12:28:50;;;;;;;44.00;29.97;;;10.30;99.90;;;;;;4994853;28;20197;-70
2023/09/10 12:31:18;;;;;;;44.00;31.07;;;10.20;99.90;;;;;;5012626;28;20196;-69
2023/09/10 12:33:50;;;;;;;41.77;29.03;;;10.20;99.90;;;;;;4995168;28;20296;-70
2023/09/10 12:36:18;;;;;;;44.73;30.17;;;10.20;99.90;;;;;;4995595;28;20376;-69
2023/09/10 12:38:46;;;;;;;37.70;27.90;;;10.20;99.90;;;;;;5013141;28;20593;-69
2023/09/10 12:41:16;;;;;;;41.23;28.53;;;10.20;99.90;;;;;;5011285;28;20192;-70
2023/09/10 12:43:47;;;;;;;38.30;26.30;;;10.10;99.90;;;;;;5012823;28;20274;-69
2023/09/10 12:46:15;;;;;;;41.53;27.30;;;10.10;99.90;;;;;;5012781;28;20693;-70
2023/09/10 12:48:43;;;;;;;33.40;24.20;;;10.10;99.90;;;;;;5013423;28;20181;-70
2023/09/10 12:51:11;;;;;;;35.80;24.07;;;10.00;99.90;;;;;;5013125;28;20697;-69
2023/09/10 12:53:45;;;;;;;36.00;24.87;;;10.00;99.90;;;;;;5012905;28;20252;-69
2023/09/10 12:56:12;;;;;;;33.70;22.37;;;9.90;99.90;;;;;;5013225;28;20544;-71
2023/09/10 12:58:40;;;;;;;32.83;22.23;;;9.90;99.90;;;;;;4984474;28;20241;-70
2023/09/10 13:01:18;;;;;;;29.27;21.63;;;9.80;99.90;;;;;;4973385;28;20216;-70
2023/09/10 13:03:46;;;;;;;29.63;20.37;;;9.80;99.90;;;;;;4973909;28;20225;-70